sensor_id;sensor_type;location;lat;lon;timestamp;P1;durP1;ratioP1;P2;durP2;ratioP2
39898;SDS011;25571;47.876;10.642;2023-05-10T00:00:43;0.10;;;0.10;;
39898;SDS011;25571;47.876;10.642;2023-05-10T00:03:09;0.10;;;0.10;;
39898;SDS011;25571;47.876;10.642;2023-05-10T00:05:34;0.10;;;0.10;;
39898;SDS011;25571;47.876;10.642;2023-05-10T00:08:00;0.08;;;0.08;;
39898;SDS011;25571;47.876;10.642;2023-05-10T00:10:25;0.20;;;0.10;;
39898;SDS011;25571;47.876;10.642;2023-05-10T00:12:51;0.10;;;0.10;;
39898;SDS011;25571;47.876;10.642;2023-05-10T00:15:17;0.20;;;0.20;;
39898;SDS011;25571;47.876;10.642;2023-05-10T00:17:42;0.30;;;0.10;;
39898;SDS011;25571;47.876;10.642;2023-05-10T00:20:08;0.43;;;0.10;;
39898;SDS011;25571;47.876;10.642;2023-05-10T00:22:34;0.10;;;0.10;;
39898;SDS011;25571;47.876;10.642;2023-05-10T00:25:00;0.65;;;0.10;;
39898;SDS011;25571;47.876;10.642;2023-05-10T00:27:26;0.00;;;0.00;;
39898;SDS011;25571;47.876;10.642;2023-05-10T00:29:51;0.10;;;0.10;;
39898;SDS011;25571;47.876;10.642;2023-05-10T00:32:17;0.10;;;0.10;;
39898;SDS011;25571;47.876;10.642;2023-05-10T00:34:42;0.45;;;0.10;;
39898;SDS011;25571;47.876;10.642;2023-05-10T00:37:08;0.13;;;0.13;;
39898;SDS011;25571;47.876;10.642;2023-05-10T00:39:33;0.10;;;0.10;;
39898;SDS011;25571;47.876;10.642;2023-05-10T00:41:59;0.13;;;0.13;;
39898;SDS011;25571;47.876;10.642;2023-05-10T00:44:25;0.10;;;0.10;;
39898;SDS011;25571;47.876;10.642;2023-05-10T00:46:50;2.72;;;0.10;;
39898;SDS011;25571;47.876;10.642;2023-05-10T00:49:16;0.10;;;0.10;;
39898;SDS011;25571;47.876;10.642;2023-05-10T00:51:42;0.10;;;0.10;;
39898;SDS011;25571;47.876;10.642;2023-05-10T00:54:13;0.10;;;0.10;;
39898;SDS011;25571;47.876;10.642;2023-05-10T00:56:40;0.30;;;0.10;;
39898;SDS011;25571;47.876;10.642;2023-05-10T00:59:06;0.65;;;0.35;;
39898;SDS011;25571;47.876;10.642;2023-05-10T01:01:35;0.10;;;0.10;;
39898;SDS011;25571;47.876;10.642;2023-05-10T01:04:01;0.10;;;0.00;;
39898;SDS011;25571;47.876;10.642;2023-05-10T01:06:28;0.10;;;0.10;;
39898;SDS011;25571;47.876;10.642;2023-05-10T01:08:53;0.03;;;0.00;;
39898;SDS011;25571;47.876;10.642;2023-05-10T01:11:20;0.25;;;0.10;;
39898;SDS011;25571;47.876;10.642;2023-05-10T01:13:47;0.10;;;0.03;;
39898;SDS011;25571;47.876;10.642;2023-05-10T01:16:19;1.15;;;0.10;;
39898;SDS011;25571;47.876;10.642;2023-05-10T01:18:45;0.10;;;0.10;;
39898;SDS011;25571;47.876;10.642;2023-05-10T01:21:17;0.10;;;0.10;;
39898;SDS011;25571;47.876;10.642;2023-05-10T01:26:46;0.00;;;0.00;;
39898;SDS011;25571;47.876;10.642;2023-05-10T01:43:05;0.10;;;0.10;;
39898;SDS011;25571;47.876;10.642;2023-05-10T01:45:41;0.10;;;0.10;;
39898;SDS011;25571;47.876;10.642;2023-05-10T01:48:15;0.13;;;0.10;;
39898;SDS011;25571;47.876;10.642;2023-05-10T01:50:43;0.13;;;0.00;;
39898;SDS011;25571;47.876;10.642;2023-05-10T01:53:11;0.10;;;0.10;;
39898;SDS011;25571;47.876;10.642;2023-05-10T01:55:46;0.00;;;0.00;;
39898;SDS011;25571;47.876;10.642;2023-05-10T01:58:22;0.10;;;0.08;;
39898;SDS011;25571;47.876;10.642;2023-05-10T02:00:53;0.10;;;0.10;;
39898;SDS011;25571;47.876;10.642;2023-05-10T02:03:23;0.32;;;0.10;;
39898;SDS011;25571;47.876;10.642;2023-05-10T02:05:50;0.55;;;0.10;;
39898;SDS011;25571;47.876;10.642;2023-05-10T02:08:16;0.10;;;0.10;;
39898;SDS011;25571;47.876;10.642;2023-05-10T02:10:45;0.20;;;0.10;;
39898;SDS011;25571;47.876;10.642;2023-05-10T02:13:11;0.25;;;0.20;;
39898;SDS011;25571;47.876;10.642;2023-05-10T02:15:38;0.15;;;0.00;;
39898;SDS011;25571;47.876;10.642;2023-05-10T02:18:06;0.25;;;0.03;;
39898;SDS011;25571;47.876;10.642;2023-05-10T02:20:34;0.00;;;0.00;;
39898;SDS011;25571;47.876;10.642;2023-05-10T02:23:01;0.00;;;0.00;;
39898;SDS011;25571;47.876;10.642;2023-05-10T02:25:28;0.10;;;0.00;;
39898;SDS011;25571;47.876;10.642;2023-05-10T02:27:56;0.55;;;0.00;;
39898;SDS011;25571;47.876;10.642;2023-05-10T02:30:22;0.10;;;0.08;;
39898;SDS011;25571;47.876;10.642;2023-05-10T02:32:49;0.03;;;0.03;;
39898;SDS011;25571;47.876;10.642;2023-05-10T02:35:16;0.15;;;0.10;;
39898;SDS011;25571;47.876;10.642;2023-05-10T02:37:42;0.00;;;0.00;;
39898;SDS011;25571;47.876;10.642;2023-05-10T02:40:10;0.20;;;0.00;;
39898;SDS011;25571;47.876;10.642;2023-05-10T02:42:37;1.17;;;0.00;;
39898;SDS011;25571;47.876;10.642;2023-05-10T02:45:07;0.00;;;0.00;;
39898;SDS011;25571;47.876;10.642;2023-05-10T02:47:36;0.08;;;0.08;;
39898;SDS011;25571;47.876;10.642;2023-05-10T02:50:02;0.10;;;0.10;;
39898;SDS011;25571;47.876;10.642;2023-05-10T02:52:29;0.22;;;0.17;;
39898;SDS011;25571;47.876;10.642;2023-05-10T02:55:01;0.00;;;0.00;;
39898;SDS011;25571;47.876;10.642;2023-05-10T03:02:25;0.00;;;0.00;;
39898;SDS011;25571;47.876;10.642;2023-05-10T03:04:51;0.00;;;0.00;;
39898;SDS011;25571;47.876;10.642;2023-05-10T03:07:16;0.00;;;0.00;;
39898;SDS011;25571;47.876;10.642;2023-05-10T03:09:44;0.00;;;0.00;;
39898;SDS011;25571;47.876;10.642;2023-05-10T03:12:11;0.00;;;0.00;;
39898;SDS011;25571;47.876;10.642;2023-05-10T03:20:21;0.00;;;0.00;;
39898;SDS011;25571;47.876;10.642;2023-05-10T03:22:55;0.00;;;0.00;;
39898;SDS011;25571;47.876;10.642;2023-05-10T03:25:46;0.10;;;0.00;;
39898;SDS011;25571;47.876;10.642;2023-05-10T03:28:14;0.10;;;0.05;;
39898;SDS011;25571;47.876;10.642;2023-05-10T03:30:41;0.00;;;0.00;;
39898;SDS011;25571;47.876;10.642;2023-05-10T03:33:08;0.00;;;0.00;;
39898;SDS011;25571;47.876;10.642;2023-05-10T03:35:34;0.43;;;0.10;;
39898;SDS011;25571;47.876;10.642;2023-05-10T03:37:59;0.10;;;0.00;;
39898;SDS011;25571;47.876;10.642;2023-05-10T03:40:26;2.70;;;1.67;;
39898;SDS011;25571;47.876;10.642;2023-05-10T03:42:53;1.43;;;1.33;;
39898;SDS011;25571;47.876;10.642;2023-05-10T03:45:20;0.57;;;0.43;;
39898;SDS011;25571;47.876;10.642;2023-05-10T03:47:45;0.20;;;0.20;;
39898;SDS011;25571;47.876;10.642;2023-05-10T03:50:11;0.25;;;0.08;;
39898;SDS011;25571;47.876;10.642;2023-05-10T03:52:37;0.10;;;0.10;;
39898;SDS011;25571;47.876;10.642;2023-05-10T03:55:04;0.10;;;0.10;;
39898;SDS011;25571;47.876;10.642;2023-05-10T03:57:30;0.20;;;0.10;;
39898;SDS011;25571;47.876;10.642;2023-05-10T03:59:56;0.13;;;0.10;;
39898;SDS011;25571;47.876;10.642;2023-05-10T04:02:21;0.10;;;0.10;;
39898;SDS011;25571;47.876;10.642;2023-05-10T04:04:47;0.15;;;0.15;;
39898;SDS011;25571;47.876;10.642;2023-05-10T04:07:13;0.45;;;0.20;;
39898;SDS011;25571;47.876;10.642;2023-05-10T04:09:39;0.10;;;0.10;;
39898;SDS011;25571;47.876;10.642;2023-05-10T04:12:04;0.10;;;0.10;;
39898;SDS011;25571;47.876;10.642;2023-05-10T04:14:30;0.10;;;0.10;;
39898;SDS011;25571;47.876;10.642;2023-05-10T04:16:56;0.60;;;0.20;;
39898;SDS011;25571;47.876;10.642;2023-05-10T04:19:21;0.10;;;0.10;;
39898;SDS011;25571;47.876;10.642;2023-05-10T04:21:47;0.32;;;0.10;;
39898;SDS011;25571;47.876;10.642;2023-05-10T04:24:13;0.10;;;0.10;;
39898;SDS011;25571;47.876;10.642;2023-05-10T04:26:38;0.10;;;0.10;;
39898;SDS011;25571;47.876;10.642;2023-05-10T04:29:04;1.25;;;0.10;;
39898;SDS011;25571;47.876;10.642;2023-05-10T04:31:30;0.10;;;0.10;;
39898;SDS011;25571;47.876;10.642;2023-05-10T04:33:55;2.72;;;0.20;;
39898;SDS011;25571;47.876;10.642;2023-05-10T04:36:21;0.30;;;0.10;;
39898;SDS011;25571;47.876;10.642;2023-05-10T04:38:46;0.55;;;0.20;;
39898;SDS011;25571;47.876;10.642;2023-05-10T04:41:12;0.13;;;0.13;;
39898;SDS011;25571;47.876;10.642;2023-05-10T04:43:38;0.38;;;0.10;;
39898;SDS011;25571;47.876;10.642;2023-05-10T04:46:04;0.10;;;0.10;;
39898;SDS011;25571;47.876;10.642;2023-05-10T04:48:30;0.43;;;0.20;;
39898;SDS011;25571;47.876;10.642;2023-05-10T04:50:55;0.10;;;0.10;;
39898;SDS011;25571;47.876;10.642;2023-05-10T04:53:21;0.10;;;0.10;;
39898;SDS011;25571;47.876;10.642;2023-05-10T04:55:47;0.10;;;0.10;;
39898;SDS011;25571;47.876;10.642;2023-05-10T04:58:13;0.20;;;0.20;;
39898;SDS011;25571;47.876;10.642;2023-05-10T05:00:38;0.40;;;0.30;;
39898;SDS011;25571;47.876;10.642;2023-05-10T05:03:04;0.30;;;0.30;;
39898;SDS011;25571;47.876;10.642;2023-05-10T05:05:30;0.80;;;0.35;;
39898;SDS011;25571;47.876;10.642;2023-05-10T05:07:55;0.20;;;0.15;;
39898;SDS011;25571;47.876;10.642;2023-05-10T05:10:21;0.15;;;0.15;;
39898;SDS011;25571;47.876;10.642;2023-05-10T05:12:47;0.10;;;0.10;;
39898;SDS011;25571;47.876;10.642;2023-05-10T05:15:12;1.73;;;0.20;;
39898;SDS011;25571;47.876;10.642;2023-05-10T05:17:38;0.10;;;0.10;;
39898;SDS011;25571;47.876;10.642;2023-05-10T05:20:04;0.30;;;0.20;;
39898;SDS011;25571;47.876;10.642;2023-05-10T05:22:30;0.20;;;0.10;;
39898;SDS011;25571;47.876;10.642;2023-05-10T05:24:55;0.20;;;0.20;;
39898;SDS011;25571;47.876;10.642;2023-05-10T05:27:23;0.25;;;0.22;;
39898;SDS011;25571;47.876;10.642;2023-05-10T05:29:54;0.60;;;0.60;;
39898;SDS011;25571;47.876;10.642;2023-05-10T05:32:23;0.70;;;0.30;;
39898;SDS011;25571;47.876;10.642;2023-05-10T05:34:49;0.68;;;0.20;;
39898;SDS011;25571;47.876;10.642;2023-05-10T05:37:15;1.48;;;0.40;;
39898;SDS011;25571;47.876;10.642;2023-05-10T05:39:44;0.63;;;0.30;;
39898;SDS011;25571;47.876;10.642;2023-05-10T05:42:10;0.40;;;0.40;;
39898;SDS011;25571;47.876;10.642;2023-05-10T05:44:36;0.43;;;0.30;;
39898;SDS011;25571;47.876;10.642;2023-05-10T05:47:02;0.30;;;0.20;;
39898;SDS011;25571;47.876;10.642;2023-05-10T05:49:28;0.25;;;0.17;;
39898;SDS011;25571;47.876;10.642;2023-05-10T05:51:53;0.28;;;0.28;;
39898;SDS011;25571;47.876;10.642;2023-05-10T05:54:19;0.20;;;0.20;;
39898;SDS011;25571;47.876;10.642;2023-05-10T05:56:45;0.30;;;0.20;;
39898;SDS011;25571;47.876;10.642;2023-05-10T05:59:11;0.70;;;0.50;;
39898;SDS011;25571;47.876;10.642;2023-05-10T06:01:36;0.20;;;0.20;;
39898;SDS011;25571;47.876;10.642;2023-05-10T06:04:02;0.22;;;0.20;;
39898;SDS011;25571;47.876;10.642;2023-05-10T06:06:28;0.30;;;0.20;;
39898;SDS011;25571;47.876;10.642;2023-05-10T06:08:53;0.88;;;0.30;;
39898;SDS011;25571;47.876;10.642;2023-05-10T06:11:19;0.43;;;0.30;;
39898;SDS011;25571;47.876;10.642;2023-05-10T06:13:46;0.40;;;0.30;;
39898;SDS011;25571;47.876;10.642;2023-05-10T06:16:12;0.50;;;0.30;;
39898;SDS011;25571;47.876;10.642;2023-05-10T06:18:38;0.52;;;0.30;;
39898;SDS011;25571;47.876;10.642;2023-05-10T06:21:04;0.38;;;0.30;;
39898;SDS011;25571;47.876;10.642;2023-05-10T06:23:29;0.40;;;0.32;;
39898;SDS011;25571;47.876;10.642;2023-05-10T06:25:55;0.43;;;0.43;;
39898;SDS011;25571;47.876;10.642;2023-05-10T06:28:20;0.20;;;0.20;;
39898;SDS011;25571;47.876;10.642;2023-05-10T06:30:46;0.20;;;0.20;;
39898;SDS011;25571;47.876;10.642;2023-05-10T06:33:12;0.30;;;0.22;;
39898;SDS011;25571;47.876;10.642;2023-05-10T06:35:38;0.95;;;0.40;;
39898;SDS011;25571;47.876;10.642;2023-05-10T06:38:04;0.40;;;0.20;;
39898;SDS011;25571;47.876;10.642;2023-05-10T06:40:29;0.32;;;0.30;;
39898;SDS011;25571;47.876;10.642;2023-05-10T06:42:55;0.93;;;0.30;;
39898;SDS011;25571;47.876;10.642;2023-05-10T06:45:20;0.20;;;0.20;;
39898;SDS011;25571;47.876;10.642;2023-05-10T06:47:46;0.20;;;0.20;;
39898;SDS011;25571;47.876;10.642;2023-05-10T06:50:12;0.40;;;0.25;;
39898;SDS011;25571;47.876;10.642;2023-05-10T06:52:37;0.47;;;0.35;;
39898;SDS011;25571;47.876;10.642;2023-05-10T06:55:04;0.75;;;0.30;;
39898;SDS011;25571;47.876;10.642;2023-05-10T06:57:30;0.60;;;0.30;;
39898;SDS011;25571;47.876;10.642;2023-05-10T06:59:55;0.30;;;0.30;;
39898;SDS011;25571;47.876;10.642;2023-05-10T07:02:21;0.52;;;0.28;;
39898;SDS011;25571;47.876;10.642;2023-05-10T07:04:48;1.30;;;0.30;;
39898;SDS011;25571;47.876;10.642;2023-05-10T07:07:13;0.20;;;0.20;;
39898;SDS011;25571;47.876;10.642;2023-05-10T07:09:39;0.20;;;0.20;;
39898;SDS011;25571;47.876;10.642;2023-05-10T07:12:05;0.55;;;0.30;;
39898;SDS011;25571;47.876;10.642;2023-05-10T07:14:31;0.20;;;0.20;;
39898;SDS011;25571;47.876;10.642;2023-05-10T07:16:56;0.20;;;0.20;;
39898;SDS011;25571;47.876;10.642;2023-05-10T07:19:22;0.77;;;0.20;;
39898;SDS011;25571;47.876;10.642;2023-05-10T07:21:48;0.90;;;0.30;;
39898;SDS011;25571;47.876;10.642;2023-05-10T07:24:13;0.60;;;0.40;;
39898;SDS011;25571;47.876;10.642;2023-05-10T07:26:39;0.25;;;0.25;;
39898;SDS011;25571;47.876;10.642;2023-05-10T07:29:04;0.20;;;0.20;;
39898;SDS011;25571;47.876;10.642;2023-05-10T07:31:30;1.58;;;0.40;;
39898;SDS011;25571;47.876;10.642;2023-05-10T07:33:55;0.30;;;0.30;;
39898;SDS011;25571;47.876;10.642;2023-05-10T07:36:21;0.40;;;0.22;;
39898;SDS011;25571;47.876;10.642;2023-05-10T07:38:47;0.43;;;0.43;;
39898;SDS011;25571;47.876;10.642;2023-05-10T07:41:12;0.40;;;0.30;;
39898;SDS011;25571;47.876;10.642;2023-05-10T07:43:38;0.40;;;0.40;;
39898;SDS011;25571;47.876;10.642;2023-05-10T07:46:04;1.45;;;0.90;;
39898;SDS011;25571;47.876;10.642;2023-05-10T07:48:30;0.57;;;0.57;;
39898;SDS011;25571;47.876;10.642;2023-05-10T07:50:56;1.23;;;0.40;;
39898;SDS011;25571;47.876;10.642;2023-05-10T07:53:21;0.57;;;0.32;;
39898;SDS011;25571;47.876;10.642;2023-05-10T07:55:54;0.65;;;0.40;;
39898;SDS011;25571;47.876;10.642;2023-05-10T07:58:23;0.35;;;0.30;;
39898;SDS011;25571;47.876;10.642;2023-05-10T08:00:48;0.40;;;0.30;;
39898;SDS011;25571;47.876;10.642;2023-05-10T08:03:14;0.47;;;0.40;;
39898;SDS011;25571;47.876;10.642;2023-05-10T08:05:39;0.40;;;0.30;;
39898;SDS011;25571;47.876;10.642;2023-05-10T08:08:05;0.63;;;0.40;;
39898;SDS011;25571;47.876;10.642;2023-05-10T08:10:31;0.50;;;0.40;;
39898;SDS011;25571;47.876;10.642;2023-05-10T08:12:57;0.85;;;0.38;;
39898;SDS011;25571;47.876;10.642;2023-05-10T08:15:23;0.40;;;0.40;;
39898;SDS011;25571;47.876;10.642;2023-05-10T08:17:50;0.40;;;0.40;;
39898;SDS011;25571;47.876;10.642;2023-05-10T08:20:16;0.80;;;0.40;;
39898;SDS011;25571;47.876;10.642;2023-05-10T08:22:44;3.53;;;0.60;;
39898;SDS011;25571;47.876;10.642;2023-05-10T08:25:10;0.30;;;0.30;;
39898;SDS011;25571;47.876;10.642;2023-05-10T08:27:35;0.40;;;0.40;;
39898;SDS011;25571;47.876;10.642;2023-05-10T08:30:01;0.30;;;0.30;;
39898;SDS011;25571;47.876;10.642;2023-05-10T08:32:27;0.47;;;0.40;;
39898;SDS011;25571;47.876;10.642;2023-05-10T08:34:53;0.95;;;0.38;;
39898;SDS011;25571;47.876;10.642;2023-05-10T08:37:18;0.95;;;0.43;;
39898;SDS011;25571;47.876;10.642;2023-05-10T08:39:44;0.38;;;0.32;;
39898;SDS011;25571;47.876;10.642;2023-05-10T08:42:12;1.85;;;0.40;;
39898;SDS011;25571;47.876;10.642;2023-05-10T08:44:44;0.63;;;0.40;;
39898;SDS011;25571;47.876;10.642;2023-05-10T08:47:13;0.38;;;0.38;;
39898;SDS011;25571;47.876;10.642;2023-05-10T08:49:43;0.30;;;0.30;;
39898;SDS011;25571;47.876;10.642;2023-05-10T08:52:12;0.50;;;0.50;;
39898;SDS011;25571;47.876;10.642;2023-05-10T08:54:41;0.30;;;0.30;;
39898;SDS011;25571;47.876;10.642;2023-05-10T08:57:07;0.50;;;0.50;;
39898;SDS011;25571;47.876;10.642;2023-05-10T08:59:32;0.40;;;0.40;;
39898;SDS011;25571;47.876;10.642;2023-05-10T09:01:58;0.70;;;0.60;;
39898;SDS011;25571;47.876;10.642;2023-05-10T09:04:24;1.77;;;0.40;;
39898;SDS011;25571;47.876;10.642;2023-05-10T09:06:51;3.17;;;0.60;;
39898;SDS011;25571;47.876;10.642;2023-05-10T09:09:17;0.52;;;0.50;;
39898;SDS011;25571;47.876;10.642;2023-05-10T09:11:43;0.50;;;0.50;;
39898;SDS011;25571;47.876;10.642;2023-05-10T09:14:09;2.13;;;0.60;;
39898;SDS011;25571;47.876;10.642;2023-05-10T09:16:35;1.40;;;0.50;;
39898;SDS011;25571;47.876;10.642;2023-05-10T09:19:01;0.50;;;0.50;;
39898;SDS011;25571;47.876;10.642;2023-05-10T09:21:27;1.30;;;0.65;;
39898;SDS011;25571;47.876;10.642;2023-05-10T09:23:53;0.85;;;0.43;;
39898;SDS011;25571;47.876;10.642;2023-05-10T09:26:22;1.80;;;0.70;;
39898;SDS011;25571;47.876;10.642;2023-05-10T09:28:55;0.60;;;0.38;;
39898;SDS011;25571;47.876;10.642;2023-05-10T09:31:23;1.23;;;0.60;;
39898;SDS011;25571;47.876;10.642;2023-05-10T09:33:50;0.70;;;0.50;;
39898;SDS011;25571;47.876;10.642;2023-05-10T09:36:16;0.80;;;0.68;;
39898;SDS011;25571;47.876;10.642;2023-05-10T09:41:19;0.60;;;0.50;;
39898;SDS011;25571;47.876;10.642;2023-05-10T09:43:46;0.80;;;0.68;;
39898;SDS011;25571;47.876;10.642;2023-05-10T09:46:12;0.52;;;0.52;;
39898;SDS011;25571;47.876;10.642;2023-05-10T09:48:44;0.30;;;0.30;;
39898;SDS011;25571;47.876;10.642;2023-05-10T09:51:21;0.45;;;0.28;;
39898;SDS011;25571;47.876;10.642;2023-05-10T09:53:48;3.40;;;0.55;;
39898;SDS011;25571;47.876;10.642;2023-05-10T09:56:33;0.40;;;0.30;;
39898;SDS011;25571;47.876;10.642;2023-05-10T09:59:03;0.20;;;0.20;;
39898;SDS011;25571;47.876;10.642;2023-05-10T10:01:30;0.60;;;0.40;;
39898;SDS011;25571;47.876;10.642;2023-05-10T10:03:56;0.40;;;0.40;;
39898;SDS011;25571;47.876;10.642;2023-05-10T10:06:23;0.50;;;0.38;;
39898;SDS011;25571;47.876;10.642;2023-05-10T10:08:49;0.45;;;0.45;;
39898;SDS011;25571;47.876;10.642;2023-05-10T10:11:15;0.65;;;0.43;;
39898;SDS011;25571;47.876;10.642;2023-05-10T10:13:41;0.40;;;0.40;;
39898;SDS011;25571;47.876;10.642;2023-05-10T10:16:08;0.60;;;0.60;;
39898;SDS011;25571;47.876;10.642;2023-05-10T10:18:35;0.65;;;0.32;;
39898;SDS011;25571;47.876;10.642;2023-05-10T10:21:05;1.55;;;0.55;;
39898;SDS011;25571;47.876;10.642;2023-05-10T10:23:33;0.60;;;0.50;;
39898;SDS011;25571;47.876;10.642;2023-05-10T10:26:00;0.50;;;0.50;;
39898;SDS011;25571;47.876;10.642;2023-05-10T10:28:36;1.00;;;0.52;;
39898;SDS011;25571;47.876;10.642;2023-05-10T10:33:56;0.40;;;0.40;;
39898;SDS011;25571;47.876;10.642;2023-05-10T10:36:26;0.38;;;0.35;;
39898;SDS011;25571;47.876;10.642;2023-05-10T10:38:56;0.25;;;0.25;;
39898;SDS011;25571;47.876;10.642;2023-05-10T10:47:05;0.98;;;0.45;;
39898;SDS011;25571;47.876;10.642;2023-05-10T10:54:50;0.60;;;0.30;;
39898;SDS011;25571;47.876;10.642;2023-05-10T11:03:11;0.52;;;0.50;;
39898;SDS011;25571;47.876;10.642;2023-05-10T11:10:51;0.68;;;0.60;;
39898;SDS011;25571;47.876;10.642;2023-05-10T11:13:47;1.27;;;0.40;;
39898;SDS011;25571;47.876;10.642;2023-05-10T11:24:13;0.52;;;0.30;;
39898;SDS011;25571;47.876;10.642;2023-05-10T11:26:41;0.90;;;0.52;;
39898;SDS011;25571;47.876;10.642;2023-05-10T11:29:07;0.90;;;0.50;;
39898;SDS011;25571;47.876;10.642;2023-05-10T11:31:33;0.43;;;0.40;;
39898;SDS011;25571;47.876;10.642;2023-05-10T11:33:58;0.88;;;0.60;;
39898;SDS011;25571;47.876;10.642;2023-05-10T11:36:27;0.80;;;0.30;;
39898;SDS011;25571;47.876;10.642;2023-05-10T11:38:54;0.60;;;0.40;;
39898;SDS011;25571;47.876;10.642;2023-05-10T11:41:21;0.70;;;0.40;;
39898;SDS011;25571;47.876;10.642;2023-05-10T11:43:49;1.05;;;0.43;;
39898;SDS011;25571;47.876;10.642;2023-05-10T11:46:17;0.73;;;0.60;;
39898;SDS011;25571;47.876;10.642;2023-05-10T11:48:45;1.45;;;0.30;;
39898;SDS011;25571;47.876;10.642;2023-05-10T11:51:12;0.55;;;0.52;;
39898;SDS011;25571;47.876;10.642;2023-05-10T11:53:37;0.70;;;0.40;;
39898;SDS011;25571;47.876;10.642;2023-05-10T11:56:09;1.67;;;0.40;;
39898;SDS011;25571;47.876;10.642;2023-05-10T11:58:36;0.35;;;0.30;;
39898;SDS011;25571;47.876;10.642;2023-05-10T12:01:03;0.47;;;0.47;;
39898;SDS011;25571;47.876;10.642;2023-05-10T12:03:30;0.55;;;0.40;;
39898;SDS011;25571;47.876;10.642;2023-05-10T12:05:56;0.40;;;0.40;;
39898;SDS011;25571;47.876;10.642;2023-05-10T12:08:23;1.48;;;0.40;;
39898;SDS011;25571;47.876;10.642;2023-05-10T12:10:50;0.73;;;0.40;;
39898;SDS011;25571;47.876;10.642;2023-05-10T12:13:16;1.25;;;0.35;;
39898;SDS011;25571;47.876;10.642;2023-05-10T12:15:42;0.88;;;0.57;;
39898;SDS011;25571;47.876;10.642;2023-05-10T12:18:09;1.52;;;0.60;;
39898;SDS011;25571;47.876;10.642;2023-05-10T12:20:35;0.57;;;0.57;;
39898;SDS011;25571;47.876;10.642;2023-05-10T12:23:01;1.58;;;1.00;;
39898;SDS011;25571;47.876;10.642;2023-05-10T12:25:31;2.58;;;1.10;;
39898;SDS011;25571;47.876;10.642;2023-05-10T12:27:59;1.08;;;0.90;;
39898;SDS011;25571;47.876;10.642;2023-05-10T12:30:28;0.80;;;0.50;;
39898;SDS011;25571;47.876;10.642;2023-05-10T12:33:02;0.80;;;0.25;;
39898;SDS011;25571;47.876;10.642;2023-05-10T12:35:32;0.63;;;0.20;;
39898;SDS011;25571;47.876;10.642;2023-05-10T12:37:58;0.10;;;0.10;;
39898;SDS011;25571;47.876;10.642;2023-05-10T12:40:24;0.13;;;0.10;;
39898;SDS011;25571;47.876;10.642;2023-05-10T12:42:50;0.20;;;0.20;;
39898;SDS011;25571;47.876;10.642;2023-05-10T12:45:16;0.70;;;0.20;;
39898;SDS011;25571;47.876;10.642;2023-05-10T12:47:43;0.25;;;0.25;;
39898;SDS011;25571;47.876;10.642;2023-05-10T12:50:09;0.30;;;0.20;;
39898;SDS011;25571;47.876;10.642;2023-05-10T12:52:35;0.22;;;0.22;;
39898;SDS011;25571;47.876;10.642;2023-05-10T12:55:01;1.73;;;0.47;;
39898;SDS011;25571;47.876;10.642;2023-05-10T12:57:28;0.75;;;0.40;;
39898;SDS011;25571;47.876;10.642;2023-05-10T12:59:54;0.32;;;0.30;;
39898;SDS011;25571;47.876;10.642;2023-05-10T13:02:19;0.55;;;0.47;;
39898;SDS011;25571;47.876;10.642;2023-05-10T13:04:46;0.20;;;0.20;;
39898;SDS011;25571;47.876;10.642;2023-05-10T13:07:12;0.75;;;0.30;;
39898;SDS011;25571;47.876;10.642;2023-05-10T13:09:38;0.20;;;0.20;;
39898;SDS011;25571;47.876;10.642;2023-05-10T13:12:04;0.10;;;0.10;;
39898;SDS011;25571;47.876;10.642;2023-05-10T13:14:30;2.08;;;0.10;;
39898;SDS011;25571;47.876;10.642;2023-05-10T13:16:56;0.32;;;0.25;;
39898;SDS011;25571;47.876;10.642;2023-05-10T13:19:22;0.10;;;0.10;;
39898;SDS011;25571;47.876;10.642;2023-05-10T13:21:47;0.20;;;0.20;;
39898;SDS011;25571;47.876;10.642;2023-05-10T13:24:13;1.13;;;0.30;;
39898;SDS011;25571;47.876;10.642;2023-05-10T13:26:41;0.15;;;0.15;;
39898;SDS011;25571;47.876;10.642;2023-05-10T13:29:07;0.60;;;0.15;;
39898;SDS011;25571;47.876;10.642;2023-05-10T13:31:33;0.20;;;0.20;;
39898;SDS011;25571;47.876;10.642;2023-05-10T13:33:59;0.20;;;0.20;;
39898;SDS011;25571;47.876;10.642;2023-05-10T13:36:25;0.22;;;0.20;;
39898;SDS011;25571;47.876;10.642;2023-05-10T13:38:51;1.08;;;0.45;;
39898;SDS011;25571;47.876;10.642;2023-05-10T13:41:16;0.55;;;0.20;;
39898;SDS011;25571;47.876;10.642;2023-05-10T13:43:42;0.38;;;0.30;;
39898;SDS011;25571;47.876;10.642;2023-05-10T13:46:08;1.08;;;0.28;;
39898;SDS011;25571;47.876;10.642;2023-05-10T13:48:33;0.30;;;0.15;;
39898;SDS011;25571;47.876;10.642;2023-05-10T13:50:59;0.60;;;0.32;;
39898;SDS011;25571;47.876;10.642;2023-05-10T13:53:24;0.10;;;0.10;;
39898;SDS011;25571;47.876;10.642;2023-05-10T13:55:50;0.20;;;0.20;;
39898;SDS011;25571;47.876;10.642;2023-05-10T13:58:16;0.75;;;0.30;;
39898;SDS011;25571;47.876;10.642;2023-05-10T14:00:41;1.10;;;0.20;;
39898;SDS011;25571;47.876;10.642;2023-05-10T14:03:07;0.20;;;0.20;;
39898;SDS011;25571;47.876;10.642;2023-05-10T14:05:35;0.20;;;0.20;;
39898;SDS011;25571;47.876;10.642;2023-05-10T14:08:01;0.30;;;0.28;;
39898;SDS011;25571;47.876;10.642;2023-05-10T14:10:28;0.20;;;0.20;;
39898;SDS011;25571;47.876;10.642;2023-05-10T14:12:54;0.30;;;0.10;;
39898;SDS011;25571;47.876;10.642;2023-05-10T14:15:20;0.30;;;0.20;;
39898;SDS011;25571;47.876;10.642;2023-05-10T14:17:46;0.22;;;0.22;;
39898;SDS011;25571;47.876;10.642;2023-05-10T14:20:11;1.38;;;0.40;;
39898;SDS011;25571;47.876;10.642;2023-05-10T14:22:37;0.65;;;0.50;;
39898;SDS011;25571;47.876;10.642;2023-05-10T14:25:03;0.80;;;0.50;;
39898;SDS011;25571;47.876;10.642;2023-05-10T14:27:28;0.43;;;0.43;;
39898;SDS011;25571;47.876;10.642;2023-05-10T14:29:55;1.20;;;0.40;;
39898;SDS011;25571;47.876;10.642;2023-05-10T14:32:20;0.20;;;0.20;;
39898;SDS011;25571;47.876;10.642;2023-05-10T14:34:46;0.98;;;0.50;;
39898;SDS011;25571;47.876;10.642;2023-05-10T14:37:13;0.30;;;0.30;;
39898;SDS011;25571;47.876;10.642;2023-05-10T14:39:39;0.47;;;0.40;;
39898;SDS011;25571;47.876;10.642;2023-05-10T14:42:05;0.43;;;0.30;;
39898;SDS011;25571;47.876;10.642;2023-05-10T14:44:30;1.50;;;0.40;;
39898;SDS011;25571;47.876;10.642;2023-05-10T14:46:56;1.30;;;0.85;;
39898;SDS011;25571;47.876;10.642;2023-05-10T14:49:22;1.17;;;0.80;;
39898;SDS011;25571;47.876;10.642;2023-05-10T14:51:49;0.80;;;0.50;;
39898;SDS011;25571;47.876;10.642;2023-05-10T14:54:15;0.28;;;0.22;;
39898;SDS011;25571;47.876;10.642;2023-05-10T14:56:40;0.20;;;0.20;;
39898;SDS011;25571;47.876;10.642;2023-05-10T14:59:06;0.20;;;0.20;;
39898;SDS011;25571;47.876;10.642;2023-05-10T15:01:32;1.30;;;0.20;;
39898;SDS011;25571;47.876;10.642;2023-05-10T15:04:02;0.13;;;0.10;;
39898;SDS011;25571;47.876;10.642;2023-05-10T15:06:31;0.20;;;0.20;;
39898;SDS011;25571;47.876;10.642;2023-05-10T15:08:58;0.20;;;0.20;;
39898;SDS011;25571;47.876;10.642;2023-05-10T15:11:24;0.30;;;0.28;;
39898;SDS011;25571;47.876;10.642;2023-05-10T15:13:50;0.25;;;0.20;;
39898;SDS011;25571;47.876;10.642;2023-05-10T15:16:15;0.30;;;0.30;;
39898;SDS011;25571;47.876;10.642;2023-05-10T15:18:41;0.30;;;0.20;;
39898;SDS011;25571;47.876;10.642;2023-05-10T15:21:06;1.65;;;0.40;;
39898;SDS011;25571;47.876;10.642;2023-05-10T15:23:32;1.02;;;0.35;;
39898;SDS011;25571;47.876;10.642;2023-05-10T15:25:58;0.47;;;0.35;;
39898;SDS011;25571;47.876;10.642;2023-05-10T15:28:23;0.43;;;0.40;;
39898;SDS011;25571;47.876;10.642;2023-05-10T15:30:49;0.85;;;0.60;;
39898;SDS011;25571;47.876;10.642;2023-05-10T15:33:15;0.85;;;0.60;;